sensor_id;sensor_type;location;lat;lon;timestamp;temperature;humidity
20740;DHT22;10530;49.968;19.844;2024-03-25T00:03:42;3.30;76.90
20740;DHT22;10530;49.968;19.844;2024-03-25T00:08:43;3.20;77.30
20740;DHT22;10530;49.968;19.844;2024-03-25T00:13:44;3.00;78.40
20740;DHT22;10530;49.968;19.844;2024-03-25T00:18:46;2.90;79.60
20740;DHT22;10530;49.968;19.844;2024-03-25T00:23:48;3.00;79.40
20740;DHT22;10530;49.968;19.844;2024-03-25T00:28:49;2.80;79.10
20740;DHT22;10530;49.968;19.844;2024-03-25T00:33:51;2.80;79.70
20740;DHT22;10530;49.968;19.844;2024-03-25T00:38:52;3.10;79.60
20740;DHT22;10530;49.968;19.844;2024-03-25T00:43:55;3.00;80.20
20740;DHT22;10530;49.968;19.844;2024-03-25T00:48:59;3.00;80.70
20740;DHT22;10530;49.968;19.844;2024-03-25T00:54:01;2.90;81.60
20740;DHT22;10530;49.968;19.844;2024-03-25T00:59:02;2.70;82.30
20740;DHT22;10530;49.968;19.844;2024-03-25T01:04:04;2.70;83.10
20740;DHT22;10530;49.968;19.844;2024-03-25T01:09:05;3.00;81.90
20740;DHT22;10530;49.968;19.844;2024-03-25T01:14:08;3.20;81.00
20740;DHT22;10530;49.968;19.844;2024-03-25T01:19:10;3.40;81.20
20740;DHT22;10530;49.968;19.844;2024-03-25T01:24:12;3.40;80.70
20740;DHT22;10530;49.968;19.844;2024-03-25T01:29:13;3.60;80.70
20740;DHT22;10530;49.968;19.844;2024-03-25T01:34:15;3.70;81.20
20740;DHT22;10530;49.968;19.844;2024-03-25T01:39:16;3.60;80.80
20740;DHT22;10530;49.968;19.844;2024-03-25T01:44:18;3.70;81.30
20740;DHT22;10530;49.968;19.844;2024-03-25T01:49:20;3.60;81.20
20740;DHT22;10530;49.968;19.844;2024-03-25T01:54:22;3.60;81.20
20740;DHT22;10530;49.968;19.844;2024-03-25T01:59:25;3.40;81.60
20740;DHT22;10530;49.968;19.844;2024-03-25T02:04:27;3.50;81.50
20740;DHT22;10530;49.968;19.844;2024-03-25T02:09:28;3.60;81.40
20740;DHT22;10530;49.968;19.844;2024-03-25T02:14:30;3.60;81.50
20740;DHT22;10530;49.968;19.844;2024-03-25T02:19:32;3.80;81.30
20740;DHT22;10530;49.968;19.844;2024-03-25T02:24:34;3.80;81.50
20740;DHT22;10530;49.968;19.844;2024-03-25T02:29:36;3.50;81.70
20740;DHT22;10530;49.968;19.844;2024-03-25T02:34:39;3.80;81.10
20740;DHT22;10530;49.968;19.844;2024-03-25T02:39:41;3.80;81.60
20740;DHT22;10530;49.968;19.844;2024-03-25T02:44:43;3.90;81.20
20740;DHT22;10530;49.968;19.844;2024-03-25T02:49:45;3.90;81.00
20740;DHT22;10530;49.968;19.844;2024-03-25T02:54:47;3.90;80.60
20740;DHT22;10530;49.968;19.844;2024-03-25T02:59:48;3.90;80.60
20740;DHT22;10530;49.968;19.844;2024-03-25T03:04:50;4.00;80.10
20740;DHT22;10530;49.968;19.844;2024-03-25T03:09:51;3.70;80.40
20740;DHT22;10530;49.968;19.844;2024-03-25T03:14:53;3.60;80.70
20740;DHT22;10530;49.968;19.844;2024-03-25T03:19:54;3.60;80.80
20740;DHT22;10530;49.968;19.844;2024-03-25T03:24:56;3.50;81.20
20740;DHT22;10530;49.968;19.844;2024-03-25T03:29:58;3.40;81.50
20740;DHT22;10530;49.968;19.844;2024-03-25T03:34:59;3.40;81.50
20740;DHT22;10530;49.968;19.844;2024-03-25T03:40:01;3.30;81.20
20740;DHT22;10530;49.968;19.844;2024-03-25T03:45:03;3.30;81.20
20740;DHT22;10530;49.968;19.844;2024-03-25T03:50:05;3.50;81.20
20740;DHT22;10530;49.968;19.844;2024-03-25T03:55:07;3.50;80.50
20740;DHT22;10530;49.968;19.844;2024-03-25T04:00:09;3.50;80.40
20740;DHT22;10530;49.968;19.844;2024-03-25T04:05:16;3.40;81.00
20740;DHT22;10530;49.968;19.844;2024-03-25T04:10:18;3.30;80.90
20740;DHT22;10530;49.968;19.844;2024-03-25T04:15:19;3.40;81.10
20740;DHT22;10530;49.968;19.844;2024-03-25T04:20:22;3.00;81.10
20740;DHT22;10530;49.968;19.844;2024-03-25T04:25:24;2.90;81.70
20740;DHT22;10530;49.968;19.844;2024-03-25T04:30:26;2.40;82.70
20740;DHT22;10530;49.968;19.844;2024-03-25T04:35:28;2.30;82.60
20740;DHT22;10530;49.968;19.844;2024-03-25T04:40:29;2.50;82.00
20740;DHT22;10530;49.968;19.844;2024-03-25T04:45:32;2.60;82.10
20740;DHT22;10530;49.968;19.844;2024-03-25T04:50:34;2.60;81.60
20740;DHT22;10530;49.968;19.844;2024-03-25T04:55:35;2.70;80.90
20740;DHT22;10530;49.968;19.844;2024-03-25T05:00:37;2.80;80.00
20740;DHT22;10530;49.968;19.844;2024-03-25T05:05:38;3.10;79.20
20740;DHT22;10530;49.968;19.844;2024-03-25T05:10:40;3.30;78.40
20740;DHT22;10530;49.968;19.844;2024-03-25T05:15:49;3.70;78.40
20740;DHT22;10530;49.968;19.844;2024-03-25T05:20:51;3.80;77.80
20740;DHT22;10530;49.968;19.844;2024-03-25T05:25:53;3.80;77.70
20740;DHT22;10530;49.968;19.844;2024-03-25T05:30:56;3.90;77.70
20740;DHT22;10530;49.968;19.844;2024-03-25T05:35:59;3.90;77.90
20740;DHT22;10530;49.968;19.844;2024-03-25T05:41:00;3.80;77.60
20740;DHT22;10530;49.968;19.844;2024-03-25T05:46:02;4.20;76.60
20740;DHT22;10530;49.968;19.844;2024-03-25T05:51:05;4.30;76.20
20740;DHT22;10530;49.968;19.844;2024-03-25T05:56:07;4.50;76.70
20740;DHT22;10530;49.968;19.844;2024-03-25T06:01:09;4.60;77.00
20740;DHT22;10530;49.968;19.844;2024-03-25T06:06:10;4.60;78.00
20740;DHT22;10530;49.968;19.844;2024-03-25T06:11:12;4.60;79.10
20740;DHT22;10530;49.968;19.844;2024-03-25T06:16:14;4.50;80.00
20740;DHT22;10530;49.968;19.844;2024-03-25T06:21:16;4.50;79.70
20740;DHT22;10530;49.968;19.844;2024-03-25T06:26:17;4.70;80.40
20740;DHT22;10530;49.968;19.844;2024-03-25T06:31:19;4.70;80.10
20740;DHT22;10530;49.968;19.844;2024-03-25T06:36:40;4.60;80.30
20740;DHT22;10530;49.968;19.844;2024-03-25T06:41:41;4.50;81.10
20740;DHT22;10530;49.968;19.844;2024-03-25T06:46:43;4.60;80.50
20740;DHT22;10530;49.968;19.844;2024-03-25T06:51:44;4.70;80.60
20740;DHT22;10530;49.968;19.844;2024-03-25T06:56:46;4.80;80.70
20740;DHT22;10530;49.968;19.844;2024-03-25T07:01:47;4.80;80.60
20740;DHT22;10530;49.968;19.844;2024-03-25T07:06:49;4.70;80.70
20740;DHT22;10530;49.968;19.844;2024-03-25T07:11:50;4.70;81.20
20740;DHT22;10530;49.968;19.844;2024-03-25T07:16:52;5.00;81.10
20740;DHT22;10530;49.968;19.844;2024-03-25T07:21:54;5.10;81.30
20740;DHT22;10530;49.968;19.844;2024-03-25T07:26:55;5.40;80.40
20740;DHT22;10530;49.968;19.844;2024-03-25T07:31:57;5.60;80.20
20740;DHT22;10530;49.968;19.844;2024-03-25T07:36:59;6.00;78.10
20740;DHT22;10530;49.968;19.844;2024-03-25T07:42:00;5.30;80.90
20740;DHT22;10530;49.968;19.844;2024-03-25T07:47:02;5.30;82.00
20740;DHT22;10530;49.968;19.844;2024-03-25T07:52:05;5.30;82.20
20740;DHT22;10530;49.968;19.844;2024-03-25T07:57:07;5.20;82.40
20740;DHT22;10530;49.968;19.844;2024-03-25T08:02:09;5.60;82.40
20740;DHT22;10530;49.968;19.844;2024-03-25T08:07:10;6.00;82.40
20740;DHT22;10530;49.968;19.844;2024-03-25T08:12:12;6.30;81.30
20740;DHT22;10530;49.968;19.844;2024-03-25T08:17:14;6.50;80.60
20740;DHT22;10530;49.968;19.844;2024-03-25T08:22:17;6.30;79.20
20740;DHT22;10530;49.968;19.844;2024-03-25T08:27:23;6.40;80.70
20740;DHT22;10530;49.968;19.844;2024-03-25T08:32:26;6.70;79.60
20740;DHT22;10530;49.968;19.844;2024-03-25T08:37:29;6.60;79.20
20740;DHT22;10530;49.968;19.844;2024-03-25T08:42:31;6.30;79.20
20740;DHT22;10530;49.968;19.844;2024-03-25T08:47:35;6.40;78.90
20740;DHT22;10530;49.968;19.844;2024-03-25T08:52:39;6.30;79.30
20740;DHT22;10530;49.968;19.844;2024-03-25T08:57:41;6.30;79.70
20740;DHT22;10530;49.968;19.844;2024-03-25T09:02:43;6.50;79.00
20740;DHT22;10530;49.968;19.844;2024-03-25T09:07:45;6.50;78.80
20740;DHT22;10530;49.968;19.844;2024-03-25T09:12:47;6.40;78.20
20740;DHT22;10530;49.968;19.844;2024-03-25T09:17:48;6.30;77.80
20740;DHT22;10530;49.968;19.844;2024-03-25T09:22:50;6.40;78.30
20740;DHT22;10530;49.968;19.844;2024-03-25T09:27:51;6.50;77.00
20740;DHT22;10530;49.968;19.844;2024-03-25T09:32:53;6.40;75.90
20740;DHT22;10530;49.968;19.844;2024-03-25T09:37:55;6.10;78.00
20740;DHT22;10530;49.968;19.844;2024-03-25T09:42:57;5.70;80.70
20740;DHT22;10530;49.968;19.844;2024-03-25T09:47:59;5.80;82.50
20740;DHT22;10530;49.968;19.844;2024-03-25T09:53:01;5.70;83.90
20740;DHT22;10530;49.968;19.844;2024-03-25T09:58:04;5.90;83.10
20740;DHT22;10530;49.968;19.844;2024-03-25T10:03:06;6.10;82.40
20740;DHT22;10530;49.968;19.844;2024-03-25T10:08:08;6.80;81.30
20740;DHT22;10530;49.968;19.844;2024-03-25T10:13:09;8.50;75.40
20740;DHT22;10530;49.968;19.844;2024-03-25T10:18:14;10.30;70.90
20740;DHT22;10530;49.968;19.844;2024-03-25T10:23:23;8.90;72.40
20740;DHT22;10530;49.968;19.844;2024-03-25T10:28:28;9.60;69.60
20740;DHT22;10530;49.968;19.844;2024-03-25T10:33:30;9.90;69.20
20740;DHT22;10530;49.968;19.844;2024-03-25T10:38:32;8.80;70.30
20740;DHT22;10530;49.968;19.844;2024-03-25T10:43:35;8.50;71.80
20740;DHT22;10530;49.968;19.844;2024-03-25T10:48:39;8.30;73.60
20740;DHT22;10530;49.968;19.844;2024-03-25T10:53:43;8.90;68.50
20740;DHT22;10530;49.968;19.844;2024-03-25T10:58:48;10.90;65.70
20740;DHT22;10530;49.968;19.844;2024-03-25T11:03:50;10.80;64.50
20740;DHT22;10530;49.968;19.844;2024-03-25T11:08:59;9.80;64.40
20740;DHT22;10530;49.968;19.844;2024-03-25T11:14:03;9.10;67.20
20740;DHT22;10530;49.968;19.844;2024-03-25T11:19:05;7.70;73.10
20740;DHT22;10530;49.968;19.844;2024-03-25T11:24:08;5.20;83.10
20740;DHT22;10530;49.968;19.844;2024-03-25T11:29:10;4.30;87.10
20740;DHT22;10530;49.968;19.844;2024-03-25T11:34:12;4.00;86.90
20740;DHT22;10530;49.968;19.844;2024-03-25T11:39:14;4.10;88.00
20740;DHT22;10530;49.968;19.844;2024-03-25T11:44:16;4.10;87.90
20740;DHT22;10530;49.968;19.844;2024-03-25T11:49:21;4.50;87.50
20740;DHT22;10530;49.968;19.844;2024-03-25T11:54:22;4.70;87.40
20740;DHT22;10530;49.968;19.844;2024-03-25T11:59:25;5.10;86.20
20740;DHT22;10530;49.968;19.844;2024-03-25T12:04:27;5.80;85.30
20740;DHT22;10530;49.968;19.844;2024-03-25T12:09:29;8.00;81.20
20740;DHT22;10530;49.968;19.844;2024-03-25T12:14:49;9.40;76.50
20740;DHT22;10530;49.968;19.844;2024-03-25T12:20:08;10.20;73.30
20740;DHT22;10530;49.968;19.844;2024-03-25T12:25:10;10.40;72.20
20740;DHT22;10530;49.968;19.844;2024-03-25T12:30:13;11.80;71.90
20740;DHT22;10530;49.968;19.844;2024-03-25T12:35:16;9.90;77.00
20740;DHT22;10530;49.968;19.844;2024-03-25T12:50:36;6.80;78.50
20740;DHT22;10530;49.968;19.844;2024-03-25T12:55:37;5.80;82.10
20740;DHT22;10530;49.968;19.844;2024-03-25T13:00:39;5.90;83.90
20740;DHT22;10530;49.968;19.844;2024-03-25T13:05:43;6.50;82.70
20740;DHT22;10530;49.968;19.844;2024-03-25T13:10:45;7.20;79.30
20740;DHT22;10530;49.968;19.844;2024-03-25T13:15:47;8.60;79.50
20740;DHT22;10530;49.968;19.844;2024-03-25T13:20:49;8.70;73.70
20740;DHT22;10530;49.968;19.844;2024-03-25T13:25:51;10.40;70.30
20740;DHT22;10530;49.968;19.844;2024-03-25T13:30:52;9.50;68.80
20740;DHT22;10530;49.968;19.844;2024-03-25T13:35:54;9.90;70.30
20740;DHT22;10530;49.968;19.844;2024-03-25T13:40:56;10.60;69.50
20740;DHT22;10530;49.968;19.844;2024-03-25T13:45:57;11.00;65.00
20740;DHT22;10530;49.968;19.844;2024-03-25T13:50:59;9.10;70.40
20740;DHT22;10530;49.968;19.844;2024-03-25T13:56:01;8.70;71.20
20740;DHT22;10530;49.968;19.844;2024-03-25T14:01:04;7.50;77.80
20740;DHT22;10530;49.968;19.844;2024-03-25T14:06:07;7.00;80.90
20740;DHT22;10530;49.968;19.844;2024-03-25T14:11:09;6.90;80.20
20740;DHT22;10530;49.968;19.844;2024-03-25T14:16:11;7.30;82.80
20740;DHT22;10530;49.968;19.844;2024-03-25T14:21:13;7.20;81.80
20740;DHT22;10530;49.968;19.844;2024-03-25T14:26:16;7.40;79.20
20740;DHT22;10530;49.968;19.844;2024-03-25T14:31:17;8.30;79.20
20740;DHT22;10530;49.968;19.844;2024-03-25T14:36:19;8.80;75.80
20740;DHT22;10530;49.968;19.844;2024-03-25T14:41:21;8.30;77.10
20740;DHT22;10530;49.968;19.844;2024-03-25T14:46:23;9.20;73.40
20740;DHT22;10530;49.968;19.844;2024-03-25T14:51:24;9.40;72.30
20740;DHT22;10530;49.968;19.844;2024-03-25T14:56:26;10.00;72.70
20740;DHT22;10530;49.968;19.844;2024-03-25T15:01:28;9.60;73.30
20740;DHT22;10530;49.968;19.844;2024-03-25T15:06:33;9.50;68.30
20740;DHT22;10530;49.968;19.844;2024-03-25T15:11:34;9.00;72.00
20740;DHT22;10530;49.968;19.844;2024-03-25T15:16:36;8.60;72.70
20740;DHT22;10530;49.968;19.844;2024-03-25T15:21:38;8.60;72.50
20740;DHT22;10530;49.968;19.844;2024-03-25T15:26:40;8.80;73.10
20740;DHT22;10530;49.968;19.844;2024-03-25T15:31:41;9.30;74.20
20740;DHT22;10530;49.968;19.844;2024-03-25T15:36:43;10.00;69.10
20740;DHT22;10530;49.968;19.844;2024-03-25T15:41:44;10.00;68.70
20740;DHT22;10530;49.968;19.844;2024-03-25T15:46:46;9.60;68.80
20740;DHT22;10530;49.968;19.844;2024-03-25T15:51:47;9.40;69.20
20740;DHT22;10530;49.968;19.844;2024-03-25T15:56:49;8.70;70.60
20740;DHT22;10530;49.968;19.844;2024-03-25T16:01:50;8.50;71.00
20740;DHT22;10530;49.968;19.844;2024-03-25T16:06:52;8.50;73.50
20740;DHT22;10530;49.968;19.844;2024-03-25T16:11:54;8.20;73.60
20740;DHT22;10530;49.968;19.844;2024-03-25T16:16:56;8.30;71.10
20740;DHT22;10530;49.968;19.844;2024-03-25T16:21:58;8.10;74.10
20740;DHT22;10530;49.968;19.844;2024-03-25T16:27:00;7.90;73.70
20740;DHT22;10530;49.968;19.844;2024-03-25T16:32:02;7.60;75.30
20740;DHT22;10530;49.968;19.844;2024-03-25T16:37:04;8.20;76.20
20740;DHT22;10530;49.968;19.844;2024-03-25T16:42:05;7.80;74.30
20740;DHT22;10530;49.968;19.844;2024-03-25T16:47:07;7.50;75.80
20740;DHT22;10530;49.968;19.844;2024-03-25T16:52:08;7.20;77.50
20740;DHT22;10530;49.968;19.844;2024-03-25T16:57:10;7.10;80.40
20740;DHT22;10530;49.968;19.844;2024-03-25T17:02:11;7.00;81.50
20740;DHT22;10530;49.968;19.844;2024-03-25T17:07:13;6.90;81.10
20740;DHT22;10530;49.968;19.844;2024-03-25T17:12:15;7.00;81.60
20740;DHT22;10530;49.968;19.844;2024-03-25T17:17:16;7.00;80.10
20740;DHT22;10530;49.968;19.844;2024-03-25T17:22:18;6.90;81.40
20740;DHT22;10530;49.968;19.844;2024-03-25T17:27:19;6.00;83.00
20740;DHT22;10530;49.968;19.844;2024-03-25T17:32:21;5.50;82.10
20740;DHT22;10530;49.968;19.844;2024-03-25T17:37:24;5.40;84.30
20740;DHT22;10530;49.968;19.844;2024-03-25T17:42:27;5.60;86.00
20740;DHT22;10530;49.968;19.844;2024-03-25T17:47:29;5.40;86.10
20740;DHT22;10530;49.968;19.844;2024-03-25T17:52:30;5.50;85.80
20740;DHT22;10530;49.968;19.844;2024-03-25T17:57:33;5.70;85.60
20740;DHT22;10530;49.968;19.844;2024-03-25T18:02:34;5.80;84.90
20740;DHT22;10530;49.968;19.844;2024-03-25T18:07:36;5.70;84.00
20740;DHT22;10530;49.968;19.844;2024-03-25T18:12:39;5.50;84.40
20740;DHT22;10530;49.968;19.844;2024-03-25T18:17:40;5.30;84.20
20740;DHT22;10530;49.968;19.844;2024-03-25T18:22:42;4.90;85.30
20740;DHT22;10530;49.968;19.844;2024-03-25T18:27:44;4.80;86.40
20740;DHT22;10530;49.968;19.844;2024-03-25T18:32:46;4.60;86.00
20740;DHT22;10530;49.968;19.844;2024-03-25T18:37:48;4.60;86.00
20740;DHT22;10530;49.968;19.844;2024-03-25T18:42:50;4.50;86.10
20740;DHT22;10530;49.968;19.844;2024-03-25T18:47:51;4.50;86.40
20740;DHT22;10530;49.968;19.844;2024-03-25T18:52:53;4.20;86.70
20740;DHT22;10530;49.968;19.844;2024-03-25T18:57:55;4.20;86.10
20740;DHT22;10530;49.968;19.844;2024-03-25T19:02:56;4.10;86.10
20740;DHT22;10530;49.968;19.844;2024-03-25T19:07:58;4.00;86.60
20740;DHT22;10530;49.968;19.844;2024-03-25T19:12:59;4.10;86.30
20740;DHT22;10530;49.968;19.844;2024-03-25T19:18:01;4.10;86.10
20740;DHT22;10530;49.968;19.844;2024-03-25T19:23:04;4.20;86.00
20740;DHT22;10530;49.968;19.844;2024-03-25T19:28:05;3.50;87.40
20740;DHT22;10530;49.968;19.844;2024-03-25T19:33:07;3.60;86.90
20740;DHT22;10530;49.968;19.844;2024-03-25T19:38:09;3.50;86.80
20740;DHT22;10530;49.968;19.844;2024-03-25T19:43:10;3.50;87.00
20740;DHT22;10530;49.968;19.844;2024-03-25T19:48:13;3.40;87.50
20740;DHT22;10530;49.968;19.844;2024-03-25T19:53:15;3.40;87.10
20740;DHT22;10530;49.968;19.844;2024-03-25T19:58:17;3.30;87.80
20740;DHT22;10530;49.968;19.844;2024-03-25T20:03:18;3.10;87.90
20740;DHT22;10530;49.968;19.844;2024-03-25T20:08:20;2.90;87.90
20740;DHT22;10530;49.968;19.844;2024-03-25T20:13:22;2.70;88.10
20740;DHT22;10530;49.968;19.844;2024-03-25T20:18:24;2.60;89.40
20740;DHT22;10530;49.968;19.844;2024-03-25T20:23:27;2.60;88.80
20740;DHT22;10530;49.968;19.844;2024-03-25T20:28:29;2.80;88.50
20740;DHT22;10530;49.968;19.844;2024-03-25T20:33:31;3.20;87.80
20740;DHT22;10530;49.968;19.844;2024-03-25T20:38:32;2.90;88.40
20740;DHT22;10530;49.968;19.844;2024-03-25T20:43:34;2.80;88.70
20740;DHT22;10530;49.968;19.844;2024-03-25T20:48:36;2.80;89.10
20740;DHT22;10530;49.968;19.844;2024-03-25T20:53:38;2.90;89.00
20740;DHT22;10530;49.968;19.844;2024-03-25T20:58:40;2.90;88.30
20740;DHT22;10530;49.968;19.844;2024-03-25T21:03:42;3.10;88.50
20740;DHT22;10530;49.968;19.844;2024-03-25T21:08:44;3.00;87.80
20740;DHT22;10530;49.968;19.844;2024-03-25T21:13:46;2.90;88.10
20740;DHT22;10530;49.968;19.844;2024-03-25T21:18:47;2.90;88.00
20740;DHT22;10530;49.968;19.844;2024-03-25T21:23:49;2.80;88.60
20740;DHT22;10530;49.968;19.844;2024-03-25T21:28:50;2.80;88.70
20740;DHT22;10530;49.968;19.844;2024-03-25T21:33:52;2.60;88.60
20740;DHT22;10530;49.968;19.844;2024-03-25T21:38:54;2.30;89.70
20740;DHT22;10530;49.968;19.844;2024-03-25T21:43:56;2.40;89.70
20740;DHT22;10530;49.968;19.844;2024-03-25T21:48:58;2.20;89.80
20740;DHT22;10530;49.968;19.844;2024-03-25T21:53:59;2.20;89.80
20740;DHT22;10530;49.968;19.844;2024-03-25T21:59:01;2.30;89.70
20740;DHT22;10530;49.968;19.844;2024-03-25T22:04:04;2.30;89.40
20740;DHT22;10530;49.968;19.844;2024-03-25T22:09:06;2.10;90.10
20740;DHT22;10530;49.968;19.844;2024-03-25T22:14:09;2.30;90.00
20740;DHT22;10530;49.968;19.844;2024-03-25T22:19:10;2.20;90.10
20740;DHT22;10530;49.968;19.844;2024-03-25T22:24:12;2.20;90.00
20740;DHT22;10530;49.968;19.844;2024-03-25T22:29:14;2.20;90.30
20740;DHT22;10530;49.968;19.844;2024-03-25T22:34:16;2.30;89.70
20740;DHT22;10530;49.968;19.844;2024-03-25T22:39:17;1.90;90.40
20740;DHT22;10530;49.968;19.844;2024-03-25T22:44:19;2.30;90.50
20740;DHT22;10530;49.968;19.844;2024-03-25T22:49:20;2.40;89.80
20740;DHT22;10530;49.968;19.844;2024-03-25T22:54:22;2.60;89.40
20740;DHT22;10530;49.968;19.844;2024-03-25T22:59:23;2.40;89.70
20740;DHT22;10530;49.968;19.844;2024-03-25T23:04:25;2.70;89.40
20740;DHT22;10530;49.968;19.844;2024-03-25T23:09:27;2.80;89.10
20740;DHT22;10530;49.968;19.844;2024-03-25T23:14:28;3.10;88.90
20740;DHT22;10530;49.968;19.844;2024-03-25T23:19:30;3.30;88.40
20740;DHT22;10530;49.968;19.844;2024-03-25T23:24:32;3.50;87.60
20740;DHT22;10530;49.968;19.844;2024-03-25T23:29:33;3.60;87.50
20740;DHT22;10530;49.968;19.844;2024-03-25T23:34:34;3.60;86.70
20740;DHT22;10530;49.968;19.844;2024-03-25T23:39:36;3.90;86.80
20740;DHT22;10530;49.968;19.844;2024-03-25T23:44:37;3.70;86.20
20740;DHT22;10530;49.968;19.844;2024-03-25T23:49:39;3.60;86.70
20740;DHT22;10530;49.968;19.844;2024-03-25T23:54:40;3.60;86.50
20740;DHT22;10530;49.968;19.844;2024-03-25T23:59:42;3.30;86.90
